Wilmore, Kentucky
Current Conditions -  °F | °C
As of 3:54 PM on Tuesday 27 Jan 2015 (Local Time) from KLEX Reporting Station
Clear Clear  
Wind Chill: 26°   Ceiling: Unl
Heat Index: 33°   Visibility: 10mi
Dew Point: 16°   Wind: 8mph
Humidity: 50%   Direction: 340°NNW
Pressure: 30.08"   Gusts: NA
Location:  37.86°N, 84.66°W
Report Text: KLEX 272054Z 34007KT 10SM CLR 01/M09 A3008 RMK AO2 SLP194 T00061089 53009
Loading
Personal Weather Stations






























Interactive Weather Map New forecast layout! Learn more

10-Day Weather Forecast

Advertisements
Track Severe Weather on mobile